Time;durP1;ratioP1;P1;durP2;ratioP2;P2;SDS_P1;SDS_P2;PMS_P1;PMS_P2;Temp;Humidity;BMP_temperature;BMP_pressure;BME280_temperature;BME280_humidity;BME280_pressure;Samples;Min_cycle;Max_cycle;Signal;HPM_P1;HPM_P2
2022/12/13 00:01:37;;;;;;;53.05;25.00;;;-2.40;99.90;;;;;;5017847;28;20045;-58
2022/12/13 00:04:05;;;;;;;47.97;25.20;;;-2.50;99.90;;;;;;5035740;28;20132;-57
2022/12/13 00:06:32;;;;;;;52.85;23.63;;;-2.40;99.90;;;;;;5035507;28;20425;-57
2022/12/13 00:08:58;;;;;;;45.95;22.48;;;-2.50;99.90;;;;;;5035684;28;20037;-58
2022/12/13 00:11:24;;;;;;;50.33;23.80;;;-2.70;99.90;;;;;;5035426;28;20037;-58
2022/12/13 00:13:50;;;;;;;48.22;22.80;;;-2.70;99.90;;;;;;5035586;28;20037;-58
2022/12/13 00:16:18;;;;;;;48.03;23.02;;;-2.70;99.90;;;;;;5035251;28;20486;-57
2022/12/13 00:18:46;;;;;;;45.30;22.42;;;-2.70;99.90;;;;;;5017796;28;20389;-57
2022/12/13 00:21:14;;;;;;;50.08;21.83;;;-2.50;99.90;;;;;;5035196;28;20077;-57
2022/12/13 00:23:40;;;;;;;48.63;22.85;;;-2.50;99.90;;;;;;5035332;28;20045;-57
2022/12/13 00:26:13;;;;;;;46.75;23.15;;;-2.40;99.90;;;;;;5035401;28;20041;-57
2022/12/13 00:28:39;;;;;;;44.70;21.10;;;-2.50;99.90;;;;;;5035161;28;20044;-57
2022/12/13 00:31:06;;;;;;;49.60;23.70;;;-2.50;99.90;;;;;;5035190;28;20041;-57
2022/12/13 00:33:31;;;;;;;45.75;21.63;;;-2.60;99.90;;;;;;5035258;28;20453;-56
2022/12/13 00:35:57;;;;;;;46.22;22.08;;;-2.60;99.90;;;;;;5017493;28;20121;-57
2022/12/13 00:38:23;;;;;;;51.35;23.42;;;-2.70;99.90;;;;;;5034959;28;20394;-57
2022/12/13 00:40:50;;;;;;;42.83;20.15;;;-2.60;99.90;;;;;;5034978;28;20116;-57
2022/12/13 00:43:16;;;;;;;46.72;23.15;;;-2.60;99.90;;;;;;5034807;28;20060;-55
2022/12/13 00:45:42;;;;;;;44.40;22.75;;;-2.70;99.90;;;;;;5035038;28;20072;-57
2022/12/13 00:48:08;;;;;;;49.83;21.63;;;-2.60;99.90;;;;;;5035155;28;20355;-54
2022/12/13 00:50:36;;;;;;;42.85;21.50;;;-2.70;99.90;;;;;;5034937;28;20039;-56
2022/12/13 00:53:01;;;;;;;42.30;21.45;;;-2.60;99.90;;;;;;5034648;28;20110;-57
2022/12/13 00:55:27;;;;;;;45.25;21.55;;;-2.70;99.90;;;;;;5037337;28;20521;-54
2022/12/13 00:57:53;;;;;;;41.83;21.90;;;-2.80;99.90;;;;;;5036581;28;20059;-57
2022/12/13 01:00:18;;;;;;;43.65;20.20;;;-2.80;99.90;;;;;;5036468;28;20417;-54
2022/12/13 01:02:45;;;;;;;42.17;20.55;;;-2.80;99.90;;;;;;5054610;28;20037;-56
2022/12/13 01:05:11;;;;;;;38.28;20.50;;;-2.70;99.90;;;;;;5036519;28;20037;-56
2022/12/13 01:07:37;;;;;;;45.60;21.60;;;-2.70;99.90;;;;;;5053486;28;20036;-57
2022/12/13 01:10:06;;;;;;;47.53;23.35;;;-2.70;99.90;;;;;;5054423;28;20041;-55
2022/12/13 01:12:32;;;;;;;46.08;21.27;;;-2.70;99.90;;;;;;5054199;28;20114;-57
2022/12/13 01:14:58;;;;;;;47.55;23.58;;;-2.70;99.90;;;;;;5054264;28;20052;-56
2022/12/13 01:17:23;;;;;;;47.00;22.10;;;-2.60;99.90;;;;;;5054448;28;20045;-56
2022/12/13 01:19:49;;;;;;;41.30;21.73;;;-2.80;99.90;;;;;;5054324;28;20420;-58
2022/12/13 01:22:15;;;;;;;41.38;20.58;;;-2.80;99.90;;;;;;5054294;28;20477;-57
2022/12/13 01:24:40;;;;;;;40.65;20.30;;;-2.70;99.90;;;;;;5054252;28;20045;-56
2022/12/13 01:27:06;;;;;;;46.17;22.30;;;-2.70;99.90;;;;;;5053965;28;20033;-57
2022/12/13 01:29:32;;;;;;;44.80;21.58;;;-2.60;99.90;;;;;;5054071;28;20044;-56
2022/12/13 01:31:57;;;;;;;46.90;21.20;;;-2.60;99.90;;;;;;5053974;28;20045;-57
2022/12/13 01:34:23;;;;;;;44.40;23.20;;;-2.60;99.90;;;;;;5036366;28;20041;-58
2022/12/13 01:36:49;;;;;;;44.33;20.92;;;-2.60;99.90;;;;;;5053802;28;20045;-57
2022/12/13 01:39:18;;;;;;;43.72;21.50;;;-2.70;99.90;;;;;;5053876;28;20044;-57
2022/12/13 01:41:47;;;;;;;44.42;20.20;;;-2.70;99.90;;;;;;5053802;28;20044;-56
2022/12/13 01:44:50;;;;;;;44.58;22.05;;;-2.80;99.90;;;;;;5053215;28;20049;-57
2022/12/13 01:47:18;;;;;;;;;;;-2.80;99.90;;;;;;5034412;28;20049;-58
2022/12/13 01:49:44;;;;;;;40.80;20.63;;;-2.70;99.90;;;;;;5033722;28;19917;-57
2022/12/13 01:52:12;;;;;;;42.97;20.75;;;-2.80;99.90;;;;;;5033660;28;20428;-57
2022/12/13 01:54:41;;;;;;;45.70;21.63;;;-2.70;99.90;;;;;;5033496;28;20132;-55
2022/12/13 01:57:09;;;;;;;50.58;23.27;;;-2.80;99.90;;;;;;5049831;28;20497;-57
2022/12/13 01:59:37;;;;;;;42.85;20.10;;;-2.80;99.90;;;;;;5053639;28;20040;-56
2022/12/13 02:02:05;;;;;;;43.97;21.17;;;-2.90;99.90;;;;;;5053250;28;20033;-58
2022/12/13 02:04:39;;;;;;;39.80;19.58;;;-3.00;99.90;;;;;;5053130;28;20477;-58
2022/12/13 02:07:05;;;;;;;43.05;20.17;;;-2.90;99.90;;;;;;5035226;28;20091;-57
2022/12/13 02:09:34;;;;;;;41.92;20.55;;;-2.80;99.90;;;;;;5053347;28;20045;-57
2022/12/13 02:12:00;;;;;;;44.97;21.40;;;-2.80;99.90;;;;;;5053296;28;20102;-58
2022/12/13 02:14:26;;;;;;;39.67;20.05;;;-2.80;99.90;;;;;;5053232;28;20041;-56
2022/12/13 02:17:12;;;;;;;40.10;20.25;;;-2.80;99.90;;;;;;5053003;28;20507;-56
2022/12/13 02:20:20;;;;;;;40.75;20.55;;;-2.80;99.90;;;;;;5052866;28;20067;-57
2022/12/13 02:22:57;;;;;;;39.40;19.02;;;-2.80;99.90;;;;;;5034844;28;20047;-56
2022/12/13 02:25:44;;;;;;;40.38;20.27;;;-2.80;99.90;;;;;;5052877;28;20061;-57
2022/12/13 02:28:56;;;;;;;40.25;20.63;;;-2.90;99.90;;;;;;5052610;28;20094;-56
2022/12/13 02:31:32;;;;;;;41.58;21.15;;;-2.90;99.90;;;;;;5052816;28;20041;-57
2022/12/13 02:34:05;;;;;;;36.85;19.10;;;-2.80;99.90;;;;;;5052750;28;20110;-56
2022/12/13 02:36:44;;;;;;;38.10;18.52;;;-2.90;99.90;;;;;;5053018;28;20132;-55
2022/12/13 02:39:20;;;;;;;39.95;19.17;;;-2.80;99.90;;;;;;5052900;28;20103;-56
2022/12/13 02:41:52;;;;;;;37.47;18.95;;;-2.80;99.90;;;;;;5052594;28;20033;-56
2022/12/13 02:44:24;;;;;;;43.47;20.98;;;-2.90;99.90;;;;;;5052352;28;20063;-56
2022/12/13 02:47:05;;;;;;;39.58;21.45;;;-2.90;99.90;;;;;;5052543;28;20052;-55
2022/12/13 02:49:35;;;;;;;35.42;19.38;;;-3.10;99.90;;;;;;5052526;28;20040;-56
2022/12/13 02:52:02;;;;;;;41.42;20.35;;;-3.00;99.90;;;;;;5052372;28;20485;-56
2022/12/13 02:54:29;;;;;;;40.30;20.52;;;-3.00;99.90;;;;;;5052339;28;20043;-57
2022/12/13 02:56:57;;;;;;;39.65;19.67;;;-2.90;99.90;;;;;;5037300;28;20048;-57
2022/12/13 02:59:29;;;;;;;37.20;19.77;;;-3.00;99.90;;;;;;5032758;28;20088;-56
2022/12/13 03:02:19;;;;;;;37.92;19.40;;;-2.90;99.90;;;;;;5032556;28;20103;-56
2022/12/13 03:08:12;;;;;;;43.40;20.05;;;-3.10;99.90;;;;;;5032342;28;20133;-56
2022/12/13 03:10:58;;;;;;;38.40;20.30;;;-3.00;99.90;;;;;;5032230;28;20130;-56
2022/12/13 03:13:35;;;;;;;35.50;18.40;;;-3.10;99.90;;;;;;5032427;28;20045;-56
2022/12/13 03:16:36;;;;;;;42.88;20.45;;;-3.10;99.90;;;;;;5032242;28;20071;-56
2022/12/13 03:19:05;;;;;;;38.75;18.38;;;-3.00;99.90;;;;;;5006658;28;20099;-56
2022/12/13 03:21:43;;;;;;;37.10;20.38;;;-3.10;99.90;;;;;;5032227;28;20379;-55
2022/12/13 03:24:09;;;;;;;41.20;19.50;;;-3.20;99.90;;;;;;5032453;28;20085;-57
2022/12/13 03:26:37;;;;;;;35.60;19.02;;;-3.10;99.90;;;;;;5032247;28;20497;-57
2022/12/13 03:29:03;;;;;;;40.28;19.70;;;-3.20;99.90;;;;;;5015524;28;20094;-53
2022/12/13 03:31:28;;;;;;;41.88;20.38;;;-3.30;99.90;;;;;;5038641;28;20073;-54
2022/12/13 03:33:54;;;;;;;38.25;21.13;;;-3.30;99.90;;;;;;5038553;28;20091;-52
2022/12/13 03:36:20;;;;;;;41.08;19.83;;;-3.40;99.90;;;;;;5038590;28;20047;-56
2022/12/13 03:38:47;;;;;;;38.95;19.67;;;-3.30;99.90;;;;;;5038581;28;20033;-54
2022/12/13 03:41:17;;;;;;;39.58;21.15;;;-3.20;99.90;;;;;;5038552;28;20053;-54
2022/12/13 03:43:43;;;;;;;39.38;20.30;;;-3.30;99.90;;;;;;5038423;28;20063;-54
2022/12/13 03:46:09;;;;;;;41.50;20.55;;;-3.30;99.90;;;;;;5020799;28;20466;-53
2022/12/13 03:48:35;;;;;;;40.25;20.08;;;-3.30;99.90;;;;;;5021041;28;20041;-56
2022/12/13 03:51:01;;;;;;;39.78;19.48;;;-3.30;99.90;;;;;;5020734;28;20046;-56
2022/12/13 03:53:27;;;;;;;40.67;19.45;;;-3.30;99.90;;;;;;5020934;28;20064;-53
2022/12/13 03:55:53;;;;;;;46.85;20.75;;;-3.30;99.90;;;;;;5044987;28;20032;-53
2022/12/13 03:58:19;;;;;;;40.08;20.05;;;-3.30;99.90;;;;;;5058472;28;20429;-56
2022/12/13 04:00:45;;;;;;;38.67;20.38;;;-3.40;99.90;;;;;;5058425;28;20123;-56
2022/12/13 04:03:10;;;;;;;41.20;20.73;;;-3.30;99.90;;;;;;5040333;28;20056;-55
2022/12/13 04:05:36;;;;;;;39.95;19.95;;;-3.40;99.90;;;;;;5058227;28;20037;-56
2022/12/13 04:08:02;;;;;;;38.58;18.52;;;-3.40;99.90;;;;;;5058582;28;20098;-55
2022/12/13 04:10:28;;;;;;;37.30;18.73;;;-3.40;99.90;;;;;;5058425;28;20044;-56
2022/12/13 04:15:38;;;;;;;35.15;18.65;;;-3.40;99.90;;;;;;5058206;28;20083;-53
2022/12/13 04:18:04;;;;;;;38.08;18.75;;;-3.40;99.90;;;;;;5040563;28;20041;-55
2022/12/13 04:20:30;;;;;;;38.85;20.50;;;-3.40;99.90;;;;;;5058071;28;20550;-55
2022/12/13 04:22:56;;;;;;;39.00;19.13;;;-3.30;99.90;;;;;;5058414;28;20048;-55
2022/12/13 04:25:22;;;;;;;42.42;20.67;;;-3.40;99.90;;;;;;5058283;28;20065;-55
2022/12/13 04:27:48;;;;;;;38.33;20.25;;;-3.20;99.90;;;;;;5058254;28;20047;-56
2022/12/13 04:30:13;;;;;;;38.20;20.58;;;-3.20;99.90;;;;;;5058243;28;20041;-53
2022/12/13 04:32:39;;;;;;;42.88;17.98;;;-3.20;99.90;;;;;;5058115;28;20049;-54
2022/12/13 04:35:05;;;;;;;33.70;18.35;;;-3.40;99.90;;;;;;5058233;28;20039;-56
2022/12/13 04:37:31;;;;;;;34.63;18.80;;;-3.50;99.90;;;;;;5058366;28;20507;-52
2022/12/13 04:39:57;;;;;;;39.22;18.60;;;-3.50;99.90;;;;;;5058047;28;20037;-56
2022/12/13 04:42:23;;;;;;;39.15;18.17;;;-3.50;99.90;;;;;;5054824;28;20041;-56
2022/12/13 04:44:48;;;;;;;35.90;18.60;;;-3.60;99.90;;;;;;5054949;28;20041;-56
2022/12/13 04:47:15;;;;;;;38.58;18.17;;;-3.60;99.90;;;;;;5054774;28;20052;-55
2022/12/13 04:49:41;;;;;;;36.10;18.17;;;-3.60;99.90;;;;;;5054670;28;20041;-56
2022/12/13 04:52:06;;;;;;;36.85;18.30;;;-3.40;99.90;;;;;;5054576;28;20374;-56
2022/12/13 04:54:32;;;;;;;32.50;16.65;;;-3.60;99.90;;;;;;5054819;28;20041;-56
2022/12/13 04:56:58;;;;;;;40.13;18.85;;;-3.50;99.90;;;;;;5021301;28;20049;-56
2022/12/13 04:59:24;;;;;;;37.03;18.60;;;-3.60;99.90;;;;;;5034702;28;20179;-51
2022/12/13 05:01:50;;;;;;;37.72;17.52;;;-3.40;99.90;;;;;;5034450;28;20034;-53
2022/12/13 05:04:15;;;;;;;34.85;18.90;;;-3.50;99.90;;;;;;5016913;28;20053;-55
2022/12/13 05:06:41;;;;;;;36.08;18.45;;;-3.40;99.90;;;;;;5016723;28;20049;-56
2022/12/13 05:09:06;;;;;;;37.60;19.95;;;-3.30;99.90;;;;;;5034789;28;20033;-55
2022/12/13 05:11:32;;;;;;;36.92;19.35;;;-3.40;99.90;;;;;;5016634;28;20048;-52
2022/12/13 05:13:58;;;;;;;38.60;17.92;;;-3.40;99.90;;;;;;5016656;28;20099;-53
2022/12/13 05:16:24;;;;;;;34.13;18.30;;;-3.40;99.90;;;;;;5034192;28;20588;-57
2022/12/13 05:18:50;;;;;;;33.85;17.85;;;-3.40;99.90;;;;;;5034229;28;20128;-54
2022/12/13 05:21:15;;;;;;;34.40;18.40;;;-3.40;99.90;;;;;;5040257;28;20128;-54
2022/12/13 05:23:41;;;;;;;33.72;17.20;;;-3.40;99.90;;;;;;5054328;28;20112;-57
2022/12/13 05:26:07;;;;;;;33.97;18.23;;;-3.40;99.90;;;;;;5054135;28;20437;-56
2022/12/13 05:28:33;;;;;;;32.83;17.30;;;-3.40;99.90;;;;;;5054354;28;20370;-54
2022/12/13 05:31:06;;;;;;;38.90;17.88;;;-3.30;99.90;;;;;;5053948;28;20431;-55
2022/12/13 05:33:32;;;;;;;33.65;16.27;;;-3.40;99.90;;;;;;5053805;28;20044;-56
2022/12/13 05:35:57;;;;;;;36.15;18.02;;;-3.40;99.90;;;;;;5054058;28;20037;-57
2022/12/13 05:38:23;;;;;;;34.33;17.13;;;-3.30;99.90;;;;;;5047218;28;20087;-57
2022/12/13 05:40:49;;;;;;;40.35;19.92;;;-3.40;99.90;;;;;;5033802;28;20064;-56
2022/12/13 05:43:14;;;;;;;33.63;17.80;;;-3.40;99.90;;;;;;5015836;28;20081;-57
2022/12/13 05:45:40;;;;;;;35.95;17.38;;;-3.40;99.90;;;;;;5033715;28;20081;-55
2022/12/13 05:48:06;;;;;;;33.72;17.67;;;-3.40;99.90;;;;;;5033720;28;20630;-56
2022/12/13 05:50:32;;;;;;;35.60;17.45;;;-3.40;99.90;;;;;;5033868;28;20044;-56
2022/12/13 05:52:57;;;;;;;38.78;18.42;;;-3.30;99.90;;;;;;5033137;28;20414;-57
2022/12/13 05:55:23;;;;;;;36.17;17.45;;;-3.40;99.90;;;;;;5035761;28;20037;-57
2022/12/13 05:57:48;;;;;;;35.08;18.35;;;-3.40;99.90;;;;;;5034317;28;20052;-58
2022/12/13 06:00:14;;;;;;;34.60;17.88;;;-3.40;99.90;;;;;;5052061;28;20624;-58
2022/12/13 06:02:42;;;;;;;34.83;17.55;;;-3.40;99.90;;;;;;5052054;28;20508;-57
2022/12/13 06:05:09;;;;;;;39.50;18.33;;;-3.40;99.90;;;;;;5052332;28;20040;-57
2022/12/13 06:07:35;;;;;;;36.78;18.48;;;-3.40;99.90;;;;;;5052446;28;20538;-57
2022/12/13 06:10:02;;;;;;;40.75;20.02;;;-3.40;99.90;;;;;;5052556;28;20130;-57
2022/12/13 06:12:27;;;;;;;40.85;21.58;;;-3.50;99.90;;;;;;5052195;28;20061;-56
2022/12/13 06:14:53;;;;;;;43.42;22.88;;;-3.50;99.90;;;;;;5052379;28;20124;-53
2022/12/13 06:17:20;;;;;;;43.85;23.17;;;-3.50;99.90;;;;;;5052447;28;20120;-57
2022/12/13 06:19:46;;;;;;;37.03;18.80;;;-3.50;99.90;;;;;;5052435;28;20119;-56
2022/12/13 06:22:12;;;;;;;37.92;18.63;;;-3.50;99.90;;;;;;5034275;28;20448;-56
2022/12/13 06:24:37;;;;;;;36.17;18.85;;;-3.50;99.90;;;;;;5052184;28;20072;-57
2022/12/13 06:27:04;;;;;;;34.13;18.67;;;-3.60;99.90;;;;;;5052222;28;20079;-54
2022/12/13 06:29:30;;;;;;;38.42;19.65;;;-3.60;99.90;;;;;;5052244;28;20654;-56
2022/12/13 06:31:59;;;;;;;34.88;18.90;;;-3.60;99.90;;;;;;5051813;28;20123;-57
2022/12/13 06:34:26;;;;;;;36.92;19.50;;;-3.60;99.90;;;;;;5052108;28;20464;-56
2022/12/13 06:36:52;;;;;;;35.00;18.52;;;-3.50;99.90;;;;;;5051782;28;20469;-57
2022/12/13 06:39:18;;;;;;;36.47;19.77;;;-3.50;99.90;;;;;;5051821;28;20056;-55
2022/12/13 06:41:44;;;;;;;32.83;18.15;;;-3.70;99.90;;;;;;5051698;28;20047;-56
2022/12/13 06:44:10;;;;;;;38.15;20.42;;;-3.70;99.90;;;;;;5030538;28;20088;-56
2022/12/13 06:46:35;;;;;;;33.45;18.90;;;-3.70;99.90;;;;;;5032095;28;20049;-55
2022/12/13 06:49:01;;;;;;;32.00;18.55;;;-3.70;99.90;;;;;;5030116;28;20037;-56
2022/12/13 06:51:27;;;;;;;34.75;17.42;;;-3.70;99.90;;;;;;5031783;28;20045;-57
2022/12/13 06:53:53;;;;;;;33.78;17.85;;;-3.70;99.90;;;;;;5031495;28;20048;-57
2022/12/13 06:56:18;;;;;;;35.88;19.02;;;-3.60;99.90;;;;;;5021820;28;20046;-57
2022/12/13 06:58:44;;;;;;;31.73;17.88;;;-3.60;99.90;;;;;;5011779;28;20045;-56
2022/12/13 07:01:12;;;;;;;29.35;16.33;;;-3.70;99.90;;;;;;5011685;28;20044;-56
2022/12/13 07:03:39;;;;;;;37.22;17.33;;;-3.70;99.90;;;;;;5011419;28;20120;-57
2022/12/13 07:06:19;;;;;;;38.03;19.17;;;-3.80;99.90;;;;;;5010441;28;20386;-55
2022/12/13 07:08:49;;;;;;;38.05;18.67;;;-3.80;99.90;;;;;;5011715;28;20041;-53
2022/12/13 07:11:23;;;;;;;38.78;19.40;;;-3.80;99.90;;;;;;5011457;28;20034;-55
2022/12/13 07:13:50;;;;;;;35.20;19.63;;;-3.80;99.90;;;;;;5011521;28;20073;-57
2022/12/13 07:16:16;;;;;;;39.63;18.38;;;-3.90;99.90;;;;;;5011873;28;20052;-57
2022/12/13 07:18:42;;;;;;;34.30;18.55;;;-3.80;99.90;;;;;;5015128;28;20524;-55
2022/12/13 07:21:12;;;;;;;33.42;19.17;;;-3.70;99.90;;;;;;5022106;28;20034;-57
2022/12/13 07:23:39;;;;;;;32.92;17.70;;;-3.90;99.90;;;;;;5017076;28;20037;-57
2022/12/13 07:26:06;;;;;;;37.20;19.00;;;-3.80;99.90;;;;;;5027857;28;20026;-57
2022/12/13 07:28:33;;;;;;;36.70;18.13;;;-3.80;99.90;;;;;;5031217;28;20045;-56
2022/12/13 07:31:01;;;;;;;34.58;18.75;;;-3.90;99.90;;;;;;5029827;28;20073;-56
2022/12/13 07:33:28;;;;;;;38.05;19.55;;;-3.90;99.90;;;;;;5029541;28;20069;-56
2022/12/13 07:36:11;;;;;;;37.92;19.38;;;-4.00;99.90;;;;;;5031131;28;20433;-57
2022/12/13 07:38:37;;;;;;;39.45;19.45;;;-3.90;99.90;;;;;;5031254;28;20056;-55
2022/12/13 07:41:04;;;;;;;37.85;19.13;;;-3.80;99.90;;;;;;5031164;28;20053;-57
2022/12/13 07:43:30;;;;;;;34.33;18.52;;;-3.80;99.90;;;;;;5042290;28;20389;-57
2022/12/13 07:46:14;;;;;;;36.08;19.48;;;-3.90;99.90;;;;;;5050777;28;20037;-57
2022/12/13 07:48:40;;;;;;;32.40;18.27;;;-3.80;99.90;;;;;;5050841;28;20077;-57
2022/12/13 07:51:10;;;;;;;40.63;20.35;;;-3.90;99.90;;;;;;5051100;28;20122;-55
2022/12/13 07:53:36;;;;;;;36.22;19.15;;;-3.80;99.90;;;;;;5032249;28;20068;-55
2022/12/13 07:56:08;;;;;;;36.95;18.45;;;-3.70;99.90;;;;;;5042392;28;20037;-55
2022/12/13 07:58:35;;;;;;;35.03;18.63;;;-3.80;99.90;;;;;;5030192;28;20398;-55
2022/12/13 08:01:03;;;;;;;35.25;18.65;;;-3.80;99.90;;;;;;5018361;28;20033;-57
2022/12/13 08:03:29;;;;;;;37.85;19.27;;;-3.80;99.90;;;;;;5033109;28;20052;-57
2022/12/13 08:06:02;;;;;;;35.38;17.40;;;-3.80;99.90;;;;;;5031029;28;20029;-56
2022/12/13 08:08:28;;;;;;;38.67;17.98;;;-3.70;99.90;;;;;;5030784;28;20511;-57
2022/12/13 08:10:54;;;;;;;35.53;18.90;;;-3.70;99.90;;;;;;5047881;28;20036;-57
2022/12/13 08:13:20;;;;;;;33.55;18.65;;;-3.70;99.90;;;;;;5050546;28;20045;-57
2022/12/13 08:15:45;;;;;;;35.72;21.08;;;-3.50;99.90;;;;;;5052208;28;20041;-57
2022/12/13 08:18:11;;;;;;;34.38;17.90;;;-3.50;99.90;;;;;;5054668;28;20049;-55
2022/12/13 08:20:37;;;;;;;34.25;18.63;;;-3.60;99.90;;;;;;5054645;28;20547;-57
2022/12/13 08:23:02;;;;;;;36.35;18.70;;;-3.60;99.90;;;;;;5054472;28;20041;-57
2022/12/13 08:25:29;;;;;;;35.50;18.70;;;-3.50;99.90;;;;;;5054456;28;20413;-57
2022/12/13 08:27:54;;;;;;;35.72;18.17;;;-3.50;99.90;;;;;;5054195;28;20091;-57
2022/12/13 08:30:20;;;;;;;35.28;18.90;;;-3.50;99.90;;;;;;5053894;28;20076;-58
2022/12/13 08:32:48;;;;;;;39.13;19.77;;;-3.40;99.90;;;;;;5036357;28;20060;-57
2022/12/13 08:35:14;;;;;;;36.92;19.27;;;-3.50;99.90;;;;;;5054186;28;20516;-54
2022/12/13 08:37:40;;;;;;;36.22;19.30;;;-3.30;99.90;;;;;;5048780;28;20065;-54
2022/12/13 08:40:06;;;;;;;39.05;18.70;;;-3.30;99.90;;;;;;5034341;28;20077;-56
2022/12/13 08:42:32;;;;;;;36.97;19.10;;;-3.20;99.90;;;;;;5034197;28;20141;-57
2022/12/13 08:44:57;;;;;;;33.95;18.17;;;-3.10;99.90;;;;;;5034077;28;20124;-57
2022/12/13 08:47:25;;;;;;;35.17;19.00;;;-3.20;99.90;;;;;;5034276;28;20052;-55
2022/12/13 08:49:52;;;;;;;40.92;20.05;;;-3.20;99.90;;;;;;5034263;28;20116;-57
2022/12/13 08:52:20;;;;;;;37.47;18.63;;;-3.10;99.90;;;;;;5034207;28;20132;-57
2022/12/13 08:54:46;;;;;;;34.88;19.15;;;-3.10;99.90;;;;;;5033850;28;20045;-58
2022/12/13 08:57:11;;;;;;;41.92;21.02;;;-3.10;99.90;;;;;;5033132;28;20106;-55
2022/12/13 08:59:37;;;;;;;34.95;19.05;;;-3.10;99.90;;;;;;5053555;28;20037;-57
2022/12/13 09:02:03;;;;;;;40.28;20.60;;;-3.20;99.90;;;;;;5036055;28;20424;-55
2022/12/13 09:04:28;;;;;;;37.63;20.70;;;-3.20;99.90;;;;;;5053639;28;20052;-56
2022/12/13 09:06:54;;;;;;;39.00;21.45;;;-3.20;99.90;;;;;;5053979;28;20032;-55
2022/12/13 09:09:20;;;;;;;43.63;22.52;;;-3.10;99.90;;;;;;5053677;28;20029;-56
2022/12/13 09:11:45;;;;;;;41.22;20.52;;;-3.10;99.90;;;;;;5035960;28;20128;-57
2022/12/13 09:14:11;;;;;;;38.53;20.88;;;-2.90;99.90;;;;;;5035452;28;20127;-55
2022/12/13 09:16:37;;;;;;;36.45;20.13;;;-3.00;99.90;;;;;;5053462;28;20055;-56
2022/12/13 09:19:04;;;;;;;43.65;22.45;;;-3.00;99.90;;;;;;5053794;28;20050;-57
2022/12/13 09:21:31;;;;;;;37.80;20.40;;;-2.90;99.90;;;;;;5053318;28;20041;-54
2022/12/13 09:23:57;;;;;;;43.45;21.38;;;-2.80;99.90;;;;;;5053262;28;20523;-56
2022/12/13 09:26:23;;;;;;;39.92;21.60;;;-2.70;99.90;;;;;;5053152;28;20076;-56
2022/12/13 09:28:48;;;;;;;41.28;21.45;;;-2.70;99.90;;;;;;5052260;28;20488;-57
2022/12/13 09:31:18;;;;;;;42.35;22.23;;;-2.60;99.90;;;;;;5052976;28;20041;-56
2022/12/13 09:33:44;;;;;;;39.78;21.50;;;-2.50;99.90;;;;;;5053385;28;20053;-57
2022/12/13 09:36:13;;;;;;;41.45;22.88;;;-2.50;99.90;;;;;;5053300;28;20032;-57
2022/12/13 09:38:39;;;;;;;42.28;21.67;;;-2.50;99.90;;;;;;5053016;28;20401;-57
2022/12/13 09:41:26;;;;;;;34.55;20.98;;;-2.40;99.90;;;;;;5052371;28;20068;-57
2022/12/13 09:43:56;;;;;;;42.10;22.83;;;-2.40;99.90;;;;;;5052749;28;20110;-57
2022/12/13 09:46:30;;;;;;;39.65;22.60;;;-2.40;99.90;;;;;;5052707;28;20045;-57
2022/12/13 09:48:57;;;;;;;37.33;20.33;;;-2.30;99.90;;;;;;5052803;28;20061;-57
2022/12/13 09:51:24;;;;;;;40.55;21.40;;;-2.30;99.90;;;;;;5042613;28;20064;-57
2022/12/13 09:53:51;;;;;;;41.60;21.67;;;-2.30;99.90;;;;;;5042247;28;20055;-58
2022/12/13 09:56:19;;;;;;;45.40;22.42;;;-2.30;99.90;;;;;;5041839;28;20772;-57
2022/12/13 09:58:48;;;;;;;44.55;22.70;;;-2.20;99.90;;;;;;5042128;28;20125;-57
2022/12/13 10:01:14;;;;;;;40.10;21.15;;;-2.20;99.90;;;;;;5024461;28;20036;-57
2022/12/13 10:03:45;;;;;;;43.55;22.52;;;-2.30;99.90;;;;;;5042342;28;20401;-56
2022/12/13 10:06:18;;;;;;;43.22;22.38;;;-2.20;99.90;;;;;;5041456;28;20040;-58
2022/12/13 10:08:52;;;;;;;40.78;22.40;;;-2.20;99.90;;;;;;5041239;28;20088;-58
2022/12/13 10:11:19;;;;;;;42.00;22.70;;;-2.20;99.90;;;;;;5025403;28;20075;-58
2022/12/13 10:14:02;;;;;;;43.45;23.33;;;-2.10;99.90;;;;;;5040931;28;20037;-57
2022/12/13 10:16:34;;;;;;;39.85;21.35;;;-2.10;99.90;;;;;;5043503;28;20128;-58
2022/12/13 10:19:20;;;;;;;40.35;21.83;;;-2.20;99.90;;;;;;5042001;28;20045;-58
2022/12/13 10:21:47;;;;;;;37.70;20.67;;;-2.10;99.90;;;;;;5050430;28;20045;-57
2022/12/13 10:24:16;;;;;;;37.08;21.65;;;-2.00;99.90;;;;;;5052296;28;20072;-58
2022/12/13 10:26:41;;;;;;;38.33;21.65;;;-1.80;99.90;;;;;;5052140;28;20647;-58
2022/12/13 10:29:08;;;;;;;40.60;22.52;;;-1.80;99.90;;;;;;5051927;28;20052;-56
2022/12/13 10:31:43;;;;;;;39.30;21.98;;;-1.80;99.90;;;;;;5052186;28;20120;-58
2022/12/13 10:34:25;;;;;;;39.40;20.45;;;-1.70;99.90;;;;;;5052118;28;20385;-59
2022/12/13 10:36:51;;;;;;;;;;;-1.70;99.90;;;;;;5052506;28;20543;-59
2022/12/13 10:39:39;;;;;;;40.53;20.77;;;-1.60;99.90;;;;;;5051913;28;19978;-58
2022/12/13 10:42:15;;;;;;;41.92;22.20;;;-1.50;99.90;;;;;;5052002;28;20079;-57
2022/12/13 10:44:41;;;;;;;44.25;22.95;;;-1.40;99.90;;;;;;5051836;28;20535;-58
2022/12/13 10:47:14;;;;;;;38.35;21.10;;;-1.40;99.90;;;;;;5051996;28;20032;-58
2022/12/13 10:49:48;;;;;;;40.75;21.50;;;-1.40;99.90;;;;;;5034794;28;20044;-58
2022/12/13 10:52:38;;;;;;;36.53;21.15;;;-1.30;99.90;;;;;;5052485;28;20079;-58
2022/12/13 10:55:10;;;;;;;36.38;20.23;;;-1.20;99.90;;;;;;5033802;28;20041;-57
2022/12/13 10:57:36;;;;;;;44.95;22.52;;;-1.10;99.90;;;;;;5022069;28;20488;-57
2022/12/13 11:00:03;;;;;;;44.30;23.08;;;-1.10;99.90;;;;;;5032500;28;20125;-57
2022/12/13 11:02:36;;;;;;;43.90;22.98;;;-1.00;99.90;;;;;;5032468;28;20045;-56
2022/12/13 11:05:28;;;;;;;39.60;20.88;;;-0.90;99.90;;;;;;5032333;28;20184;-58
2022/12/13 11:07:54;;;;;;;;;;;-0.80;99.90;;;;;;5017851;28;20129;-58
2022/12/13 11:10:26;;;;;;;34.88;19.48;;;-0.80;99.90;;;;;;5032232;28;19992;-56
2022/12/13 11:13:05;;;;;;;39.40;21.08;;;-0.70;99.90;;;;;;5032060;28;20049;-56
2022/12/13 11:15:34;;;;;;;38.67;22.75;;;-0.60;99.90;;;;;;5032103;28;20042;-57
2022/12/13 11:18:17;;;;;;;44.88;22.17;;;-0.50;99.90;;;;;;5031931;28;20081;-58
2022/12/13 11:20:58;;;;;;;38.33;20.30;;;-0.40;99.90;;;;;;5032098;28;20478;-58
2022/12/13 11:23:43;;;;;;;37.83;19.48;;;-0.40;99.90;;;;;;5032109;28;20371;-58
2022/12/13 11:26:16;;;;;;;32.78;18.38;;;-0.20;99.90;;;;;;5013554;28;20068;-58
2022/12/13 11:29:05;;;;;;;34.45;19.73;;;-0.30;99.90;;;;;;5031629;28;20474;-59
2022/12/13 11:31:40;;;;;;;35.70;19.52;;;-0.20;99.90;;;;;;5031918;28;20056;-59
2022/12/13 11:34:43;;;;;;;38.83;19.05;;;-0.10;99.90;;;;;;5032281;28;20042;-58
2022/12/13 11:37:44;;;;;;;36.33;19.55;;;-0.10;99.90;;;;;;5032150;28;20049;-59
2022/12/13 11:40:19;;;;;;;34.65;18.92;;;0.00;99.90;;;;;;5032201;28;20436;-58
2022/12/13 11:43:09;;;;;;;35.22;18.73;;;-0.10;99.90;;;;;;5031722;28;20054;-58
2022/12/13 11:45:49;;;;;;;35.50;19.35;;;0.00;99.90;;;;;;5031911;28;20383;-58
2022/12/13 11:48:35;;;;;;;34.38;19.48;;;0.00;99.90;;;;;;5031611;28;20394;-58
2022/12/13 11:51:06;;;;;;;32.50;19.67;;;0.10;99.90;;;;;;5033876;28;20041;-54
2022/12/13 11:53:55;;;;;;;31.40;17.93;;;0.00;99.90;;;;;;5035512;28;20091;-57
2022/12/13 11:56:34;;;;;;;34.47;18.05;;;0.10;99.90;;;;;;5045896;28;20044;-58
2022/12/13 11:59:46;;;;;;;32.40;19.20;;;0.00;99.90;;;;;;5055732;28;20130;-57
2022/12/13 12:02:28;;;;;;;32.85;18.10;;;0.00;99.90;;;;;;5011118;28;20049;-58
2022/12/13 12:04:55;;;;;;;33.80;17.52;;;0.00;99.90;;;;;;5055438;28;20443;-58
2022/12/13 12:07:28;;;;;;;36.88;20.45;;;0.00;99.90;;;;;;5055585;28;20045;-58
2022/12/13 12:10:18;;;;;;;36.10;18.17;;;0.00;99.90;;;;;;5055479;28;20033;-58
2022/12/13 12:12:50;;;;;;;33.38;19.20;;;0.00;99.90;;;;;;5041165;28;20394;-56
2022/12/13 12:15:31;;;;;;;32.50;17.80;;;0.10;99.90;;;;;;5055378;28;20049;-58
2022/12/13 12:17:57;;;;;;;31.85;17.27;;;0.00;99.90;;;;;;5055579;28;20045;-58
2022/12/13 12:20:42;;;;;;;30.42;17.73;;;0.10;99.90;;;;;;5055279;28;20037;-58
2022/12/13 12:23:31;;;;;;;33.63;17.23;;;0.20;99.90;;;;;;5055109;28;20489;-58
2022/12/13 12:26:15;;;;;;;31.85;16.45;;;0.10;99.90;;;;;;5037579;28;20045;-58
2022/12/13 12:29:11;;;;;;;33.42;17.25;;;0.20;99.90;;;;;;5055034;28;20497;-56
2022/12/13 12:31:52;;;;;;;33.88;17.85;;;0.20;99.90;;;;;;5055373;28;20056;-57
2022/12/13 12:34:40;;;;;;;34.65;16.75;;;0.30;99.90;;;;;;5054935;28;20063;-58
2022/12/13 12:37:23;;;;;;;30.90;16.67;;;0.30;99.90;;;;;;5055093;28;20071;-59
2022/12/13 12:40:33;;;;;;;33.42;16.88;;;0.30;99.90;;;;;;5037343;28;20607;-58
2022/12/13 12:43:26;;;;;;;29.30;16.33;;;0.30;99.90;;;;;;5033597;28;20064;-57
2022/12/13 12:46:16;;;;;;;31.77;16.83;;;0.30;99.90;;;;;;5035183;28;20136;-59
2022/12/13 12:49:05;;;;;;;30.73;16.58;;;0.40;99.90;;;;;;5034795;28;20076;-58
2022/12/13 12:52:15;;;;;;;29.25;15.63;;;0.40;99.90;;;;;;5034674;28;20090;-59